sensor_id;sensor_type;location;lat;lon;timestamp;pressure;altitude;pressure_sealevel;temperature;humidity
48244;BME280;34053;51.088;6.572;2023-06-14T00:00:56;100742.22;;;23.26;34.44
48244;BME280;34053;51.088;6.572;2023-06-14T00:03:47;100737.84;;;23.25;34.20
48244;BME280;34053;51.088;6.572;2023-06-14T00:06:39;100741.75;;;23.21;34.75
48244;BME280;34053;51.088;6.572;2023-06-14T00:09:29;100739.41;;;23.17;34.82
48244;BME280;34053;51.088;6.572;2023-06-14T00:12:20;100743.19;;;23.14;34.87
48244;BME280;34053;51.088;6.572;2023-06-14T00:15:11;100743.53;;;23.09;35.01
48244;BME280;34053;51.088;6.572;2023-06-14T00:18:02;100742.94;;;23.06;34.78
48244;BME280;34053;51.088;6.572;2023-06-14T00:20:53;100754.38;;;22.97;35.57
48244;BME280;34053;51.088;6.572;2023-06-14T00:23:44;100764.22;;;22.85;35.17
48244;BME280;34053;51.088;6.572;2023-06-14T00:26:35;100754.47;;;22.84;35.06
48244;BME280;34053;51.088;6.572;2023-06-14T00:29:26;100758.25;;;22.81;34.96
48244;BME280;34053;51.088;6.572;2023-06-14T00:32:18;100759.72;;;22.74;34.69
48244;BME280;34053;51.088;6.572;2023-06-14T00:35:09;100758.75;;;22.75;35.18
48244;BME280;34053;51.088;6.572;2023-06-14T00:38:01;100758.63;;;22.76;35.17
48244;BME280;34053;51.088;6.572;2023-06-14T00:40:52;100761.44;;;22.75;35.27
48244;BME280;34053;51.088;6.572;2023-06-14T00:43:43;100763.84;;;22.67;35.49
48244;BME280;34053;51.088;6.572;2023-06-14T00:46:34;100765.28;;;22.59;35.17
48244;BME280;34053;51.088;6.572;2023-06-14T00:49:25;100770.13;;;22.54;35.12
48244;BME280;34053;51.088;6.572;2023-06-14T00:52:16;100772.94;;;22.53;35.71
48244;BME280;34053;51.088;6.572;2023-06-14T00:55:08;100773.16;;;22.50;35.64
48244;BME280;34053;51.088;6.572;2023-06-14T00:57:59;100767.44;;;22.43;35.65
48244;BME280;34053;51.088;6.572;2023-06-14T01:00:50;100774.72;;;22.41;35.66
48244;BME280;34053;51.088;6.572;2023-06-14T01:03:41;100769.56;;;22.38;35.82
48244;BME280;34053;51.088;6.572;2023-06-14T01:13:39;100769.56;;;22.26;36.00
48244;BME280;34053;51.088;6.572;2023-06-14T01:16:32;100776.06;;;22.22;36.05
48244;BME280;34053;51.088;6.572;2023-06-14T01:19:23;100775.59;;;22.17;36.13
48244;BME280;34053;51.088;6.572;2023-06-14T01:22:16;100773.88;;;22.16;36.52
48244;BME280;34053;51.088;6.572;2023-06-14T01:25:07;100772.16;;;22.15;36.78
48244;BME280;34053;51.088;6.572;2023-06-14T01:28:00;100768.00;;;22.11;37.38
48244;BME280;34053;51.088;6.572;2023-06-14T01:30:52;100769.22;;;22.07;36.52
48244;BME280;34053;51.088;6.572;2023-06-14T01:33:45;100773.06;;;22.02;36.55
48244;BME280;34053;51.088;6.572;2023-06-14T01:36:36;100769.78;;;21.99;36.85
48244;BME280;34053;51.088;6.572;2023-06-14T01:39:29;100773.66;;;21.95;37.45
48244;BME280;34053;51.088;6.572;2023-06-14T01:42:21;100781.19;;;21.90;37.32
48244;BME280;34053;51.088;6.572;2023-06-14T01:45:12;100775.19;;;21.86;38.04
48244;BME280;34053;51.088;6.572;2023-06-14T01:48:03;100777.97;;;21.84;37.85
48244;BME280;34053;51.088;6.572;2023-06-14T01:50:55;100780.97;;;21.80;37.71
48244;BME280;34053;51.088;6.572;2023-06-14T01:53:45;100780.34;;;21.76;38.28
48244;BME280;34053;51.088;6.572;2023-06-14T01:56:37;100774.41;;;21.73;38.17
48244;BME280;34053;51.088;6.572;2023-06-14T01:59:28;100774.59;;;21.69;38.31
48244;BME280;34053;51.088;6.572;2023-06-14T02:02:19;100781.03;;;21.67;38.55
48244;BME280;34053;51.088;6.572;2023-06-14T02:05:10;100770.06;;;21.59;38.40
48244;BME280;34053;51.088;6.572;2023-06-14T02:08:00;100780.06;;;21.55;38.19
48244;BME280;34053;51.088;6.572;2023-06-14T02:10:52;100778.38;;;21.54;39.41
48244;BME280;34053;51.088;6.572;2023-06-14T02:13:42;100781.63;;;21.46;38.84
48244;BME280;34053;51.088;6.572;2023-06-14T02:16:33;100775.09;;;21.37;38.81
48244;BME280;34053;51.088;6.572;2023-06-14T02:19:26;100780.88;;;21.31;38.87
48244;BME280;34053;51.088;6.572;2023-06-14T02:22:17;100780.13;;;21.29;38.95
48244;BME280;34053;51.088;6.572;2023-06-14T02:25:08;100786.56;;;21.27;39.05
48244;BME280;34053;51.088;6.572;2023-06-14T02:27:59;100782.19;;;21.26;39.04
48244;BME280;34053;51.088;6.572;2023-06-14T02:30:50;100781.66;;;21.20;39.06
48244;BME280;34053;51.088;6.572;2023-06-14T02:33:41;100787.53;;;21.13;39.13
48244;BME280;34053;51.088;6.572;2023-06-14T02:36:32;100797.69;;;21.07;39.53
48244;BME280;34053;51.088;6.572;2023-06-14T02:39:23;100799.72;;;21.04;39.76
48244;BME280;34053;51.088;6.572;2023-06-14T02:42:14;100803.44;;;21.01;39.50
48244;BME280;34053;51.088;6.572;2023-06-14T02:45:05;100797.25;;;21.01;39.93
48244;BME280;34053;51.088;6.572;2023-06-14T02:47:56;100802.91;;;20.96;39.69
48244;BME280;34053;51.088;6.572;2023-06-14T02:50:47;100805.16;;;20.89;39.73
48244;BME280;34053;51.088;6.572;2023-06-14T02:53:38;100804.53;;;20.86;40.00
48244;BME280;34053;51.088;6.572;2023-06-14T02:56:29;100808.34;;;20.82;40.05
48244;BME280;34053;51.088;6.572;2023-06-14T02:59:20;100806.88;;;20.78;39.87
48244;BME280;34053;51.088;6.572;2023-06-14T03:02:12;100794.50;;;20.77;40.06
48244;BME280;34053;51.088;6.572;2023-06-14T03:05:03;100804.41;;;20.74;40.79
48244;BME280;34053;51.088;6.572;2023-06-14T03:07:54;100810.84;;;20.70;39.93
48244;BME280;34053;51.088;6.572;2023-06-14T03:10:48;100807.66;;;20.65;39.94
48244;BME280;34053;51.088;6.572;2023-06-14T03:13:39;100808.09;;;20.59;40.09
48244;BME280;34053;51.088;6.572;2023-06-14T03:16:31;100812.66;;;20.57;40.49
48244;BME280;34053;51.088;6.572;2023-06-14T03:19:22;100820.31;;;20.49;40.46
48244;BME280;34053;51.088;6.572;2023-06-14T03:22:13;100815.41;;;20.42;40.50
48244;BME280;34053;51.088;6.572;2023-06-14T03:25:05;100829.69;;;20.41;40.51
48244;BME280;34053;51.088;6.572;2023-06-14T03:27:56;100828.16;;;20.37;40.62
48244;BME280;34053;51.088;6.572;2023-06-14T03:30:47;100831.06;;;20.34;40.65
48244;BME280;34053;51.088;6.572;2023-06-14T03:33:39;100831.56;;;20.26;40.63
48244;BME280;34053;51.088;6.572;2023-06-14T03:36:30;100830.91;;;20.23;40.67
48244;BME280;34053;51.088;6.572;2023-06-14T03:39:21;100831.50;;;20.13;40.18
48244;BME280;34053;51.088;6.572;2023-06-14T03:42:13;100837.91;;;20.11;40.45
48244;BME280;34053;51.088;6.572;2023-06-14T03:45:04;100837.91;;;20.11;40.49
48244;BME280;34053;51.088;6.572;2023-06-14T03:47:58;100843.53;;;20.06;40.68
48244;BME280;34053;51.088;6.572;2023-06-14T03:50:51;100854.41;;;20.03;40.58
48244;BME280;34053;51.088;6.572;2023-06-14T03:53:42;100854.47;;;20.02;40.72
48244;BME280;34053;51.088;6.572;2023-06-14T03:56:32;100847.66;;;19.97;40.58
48244;BME280;34053;51.088;6.572;2023-06-14T03:59:23;100850.31;;;19.97;40.85
48244;BME280;34053;51.088;6.572;2023-06-14T04:02:14;100858.38;;;19.96;41.37
48244;BME280;34053;51.088;6.572;2023-06-14T04:05:08;100846.78;;;19.97;41.20
48244;BME280;34053;51.088;6.572;2023-06-14T04:07:59;100857.53;;;19.95;41.36
48244;BME280;34053;51.088;6.572;2023-06-14T04:10:51;100857.66;;;19.94;41.33
48244;BME280;34053;51.088;6.572;2023-06-14T04:13:42;100861.25;;;19.93;41.43
48244;BME280;34053;51.088;6.572;2023-06-14T04:16:32;100863.72;;;19.81;41.72
48244;BME280;34053;51.088;6.572;2023-06-14T04:19:23;100863.63;;;19.83;41.45
48244;BME280;34053;51.088;6.572;2023-06-14T04:22:14;100870.00;;;19.80;41.41
48244;BME280;34053;51.088;6.572;2023-06-14T04:25:05;100864.66;;;19.80;41.22
48244;BME280;34053;51.088;6.572;2023-06-14T04:27:56;100876.25;;;19.79;41.24
48244;BME280;34053;51.088;6.572;2023-06-14T04:30:48;100883.50;;;19.77;41.08
48244;BME280;34053;51.088;6.572;2023-06-14T04:33:38;100874.59;;;19.78;41.58
48244;BME280;34053;51.088;6.572;2023-06-14T04:36:34;100876.47;;;19.76;41.32
48244;BME280;34053;51.088;6.572;2023-06-14T04:39:27;100866.78;;;19.75;41.40
48244;BME280;34053;51.088;6.572;2023-06-14T04:42:18;100870.56;;;19.71;41.60
48244;BME280;34053;51.088;6.572;2023-06-14T04:45:11;100878.38;;;19.74;41.84
48244;BME280;34053;51.088;6.572;2023-06-14T04:48:03;100880.78;;;19.64;41.74
48244;BME280;34053;51.088;6.572;2023-06-14T04:50:55;100887.88;;;19.64;41.81
48244;BME280;34053;51.088;6.572;2023-06-14T04:53:46;100897.78;;;19.62;41.53
48244;BME280;34053;51.088;6.572;2023-06-14T04:56:37;100898.34;;;19.67;41.72
48244;BME280;34053;51.088;6.572;2023-06-14T04:59:28;100899.84;;;19.71;41.81
48244;BME280;34053;51.088;6.572;2023-06-14T05:02:19;100902.13;;;19.63;42.44
48244;BME280;34053;51.088;6.572;2023-06-14T05:05:10;100907.66;;;19.60;42.45
48244;BME280;34053;51.088;6.572;2023-06-14T05:08:01;100905.66;;;19.34;44.53
48244;BME280;34053;51.088;6.572;2023-06-14T05:10:52;100901.19;;;19.21;46.13
48244;BME280;34053;51.088;6.572;2023-06-14T05:13:43;100901.22;;;19.35;43.29
48244;BME280;34053;51.088;6.572;2023-06-14T05:16:35;100909.56;;;19.29;44.66
48244;BME280;34053;51.088;6.572;2023-06-14T05:19:25;100908.53;;;19.31;46.08
48244;BME280;34053;51.088;6.572;2023-06-14T05:22:17;100912.00;;;19.17;47.15
48244;BME280;34053;51.088;6.572;2023-06-14T05:25:08;100918.22;;;19.47;44.17
48244;BME280;34053;51.088;6.572;2023-06-14T05:27:59;100906.25;;;19.54;44.07
48244;BME280;34053;51.088;6.572;2023-06-14T05:30:50;100901.19;;;19.49;45.20
48244;BME280;34053;51.088;6.572;2023-06-14T05:33:41;100910.53;;;19.42;44.99
48244;BME280;34053;51.088;6.572;2023-06-14T05:36:32;100917.06;;;19.37;46.17
48244;BME280;34053;51.088;6.572;2023-06-14T05:39:23;100916.75;;;19.12;47.81
48244;BME280;34053;51.088;6.572;2023-06-14T05:42:14;100919.06;;;19.47;44.89
48244;BME280;34053;51.088;6.572;2023-06-14T05:45:06;100924.94;;;19.38;45.71
48244;BME280;34053;51.088;6.572;2023-06-14T05:47:57;100919.06;;;19.47;45.34
48244;BME280;34053;51.088;6.572;2023-06-14T05:50:47;100925.63;;;19.42;46.06
48244;BME280;34053;51.088;6.572;2023-06-14T05:53:38;100927.91;;;19.33;46.49
48244;BME280;34053;51.088;6.572;2023-06-14T05:56:29;100933.53;;;19.43;46.25
48244;BME280;34053;51.088;6.572;2023-06-14T05:59:20;100939.00;;;19.40;45.83
48244;BME280;34053;51.088;6.572;2023-06-14T06:02:10;100940.84;;;19.54;45.10
48244;BME280;34053;51.088;6.572;2023-06-14T06:05:01;100940.00;;;19.54;45.76
48244;BME280;34053;51.088;6.572;2023-06-14T06:07:52;100941.78;;;19.67;43.86
48244;BME280;34053;51.088;6.572;2023-06-14T06:10:43;100940.38;;;19.62;43.41
48244;BME280;34053;51.088;6.572;2023-06-14T06:13:34;100952.91;;;19.60;43.50
48244;BME280;34053;51.088;6.572;2023-06-14T06:16:25;100952.91;;;19.60;42.73
48244;BME280;34053;51.088;6.572;2023-06-14T06:19:16;100957.66;;;19.55;42.68
48244;BME280;34053;51.088;6.572;2023-06-14T06:22:07;100955.97;;;19.68;42.77
48244;BME280;34053;51.088;6.572;2023-06-14T06:24:58;100959.09;;;19.60;42.87
48244;BME280;34053;51.088;6.572;2023-06-14T06:27:49;100958.22;;;19.74;42.26
48244;BME280;34053;51.088;6.572;2023-06-14T06:30:40;100963.56;;;19.74;42.54
48244;BME280;34053;51.088;6.572;2023-06-14T06:33:31;100958.91;;;19.78;42.83
48244;BME280;34053;51.088;6.572;2023-06-14T06:36:21;100964.59;;;19.72;42.83
48244;BME280;34053;51.088;6.572;2023-06-14T06:39:12;100962.50;;;19.77;42.39
48244;BME280;34053;51.088;6.572;2023-06-14T06:42:05;100968.41;;;19.82;42.74
48244;BME280;34053;51.088;6.572;2023-06-14T06:44:57;100977.47;;;19.94;42.47
48244;BME280;34053;51.088;6.572;2023-06-14T06:47:47;100971.75;;;20.00;41.95
48244;BME280;34053;51.088;6.572;2023-06-14T06:50:38;100976.13;;;20.01;42.26
48244;BME280;34053;51.088;6.572;2023-06-14T06:53:29;100981.34;;;20.17;41.92
48244;BME280;34053;51.088;6.572;2023-06-14T06:56:21;100981.06;;;20.07;41.73
48244;BME280;34053;51.088;6.572;2023-06-14T06:59:13;100985.16;;;20.13;41.91
48244;BME280;34053;51.088;6.572;2023-06-14T07:02:07;100978.59;;;20.19;41.60
48244;BME280;34053;51.088;6.572;2023-06-14T07:04:58;100989.25;;;20.19;41.86
48244;BME280;34053;51.088;6.572;2023-06-14T07:07:48;100991.34;;;20.28;41.55
48244;BME280;34053;51.088;6.572;2023-06-14T07:10:39;100989.97;;;20.35;41.70
48244;BME280;34053;51.088;6.572;2023-06-14T07:13:30;100992.78;;;20.47;41.49
48244;BME280;34053;51.088;6.572;2023-06-14T07:16:21;100989.03;;;20.36;41.65
48244;BME280;34053;51.088;6.572;2023-06-14T07:19:12;100990.25;;;20.45;41.60
48244;BME280;34053;51.088;6.572;2023-06-14T07:22:03;100989.75;;;20.38;41.56
48244;BME280;34053;51.088;6.572;2023-06-14T07:24:54;100992.78;;;20.47;41.37
48244;BME280;34053;51.088;6.572;2023-06-14T07:27:45;100993.25;;;20.53;41.18
48244;BME280;34053;51.088;6.572;2023-06-14T07:30:36;100989.88;;;20.64;41.41
48244;BME280;34053;51.088;6.572;2023-06-14T07:33:27;100993.72;;;20.60;41.35
48244;BME280;34053;51.088;6.572;2023-06-14T07:36:18;100989.25;;;20.60;41.36
48244;BME280;34053;51.088;6.572;2023-06-14T07:39:09;100993.69;;;20.74;41.15
48244;BME280;34053;51.088;6.572;2023-06-14T07:42:00;100994.47;;;20.77;40.85
48244;BME280;34053;51.088;6.572;2023-06-14T07:44:51;100993.94;;;20.84;40.50
48244;BME280;34053;51.088;6.572;2023-06-14T07:47:42;100995.53;;;20.87;39.92
48244;BME280;34053;51.088;6.572;2023-06-14T07:50:33;100998.13;;;20.88;40.35
48244;BME280;34053;51.088;6.572;2023-06-14T07:53:24;100992.38;;;20.95;39.97
48244;BME280;34053;51.088;6.572;2023-06-14T07:56:16;100992.75;;;21.16;39.83
48244;BME280;34053;51.088;6.572;2023-06-14T07:59:07;100996.03;;;21.06;39.01
48244;BME280;34053;51.088;6.572;2023-06-14T08:01:58;100991.66;;;21.05;39.21
48244;BME280;34053;51.088;6.572;2023-06-14T08:04:49;100989.75;;;21.07;39.09
48244;BME280;34053;51.088;6.572;2023-06-14T08:07:39;100990.84;;;21.18;39.29
48244;BME280;34053;51.088;6.572;2023-06-14T08:10:31;100986.03;;;21.23;39.40
48244;BME280;34053;51.088;6.572;2023-06-14T08:13:21;100983.06;;;21.41;38.08
48244;BME280;34053;51.088;6.572;2023-06-14T08:16:12;100986.91;;;21.36;38.25
48244;BME280;34053;51.088;6.572;2023-06-14T08:19:03;100980.53;;;21.39;37.56
48244;BME280;34053;51.088;6.572;2023-06-14T08:21:54;100978.81;;;21.51;37.30
48244;BME280;34053;51.088;6.572;2023-06-14T08:24:45;100982.56;;;21.48;35.44
48244;BME280;34053;51.088;6.572;2023-06-14T08:27:36;100984.16;;;21.51;34.91
48244;BME280;34053;51.088;6.572;2023-06-14T08:30:27;100976.03;;;21.52;34.07
48244;BME280;34053;51.088;6.572;2023-06-14T08:33:18;100993.47;;;21.58;35.25
48244;BME280;34053;51.088;6.572;2023-06-14T08:36:08;100981.53;;;21.64;33.41
48244;BME280;34053;51.088;6.572;2023-06-14T08:39:01;100984.19;;;21.77;34.09
48244;BME280;34053;51.088;6.572;2023-06-14T08:41:52;100987.06;;;21.74;33.28
48244;BME280;34053;51.088;6.572;2023-06-14T08:44:43;100981.06;;;21.83;31.21
48244;BME280;34053;51.088;6.572;2023-06-14T08:47:34;100981.84;;;21.85;32.52
48244;BME280;34053;51.088;6.572;2023-06-14T08:50:27;100982.47;;;21.89;31.74
48244;BME280;34053;51.088;6.572;2023-06-14T08:53:22;100977.13;;;21.89;31.23
48244;BME280;34053;51.088;6.572;2023-06-14T08:56:13;100980.50;;;22.04;30.95
48244;BME280;34053;51.088;6.572;2023-06-14T08:59:05;100980.09;;;21.97;31.62
48244;BME280;34053;51.088;6.572;2023-06-14T09:01:57;100975.41;;;22.00;32.21
48244;BME280;34053;51.088;6.572;2023-06-14T09:04:47;100972.41;;;22.05;32.14
48244;BME280;34053;51.088;6.572;2023-06-14T09:07:40;100984.53;;;22.22;32.66
48244;BME280;34053;51.088;6.572;2023-06-14T09:10:33;100982.81;;;22.21;31.00
48244;BME280;34053;51.088;6.572;2023-06-14T09:13:27;100981.72;;;22.24;30.53
48244;BME280;34053;51.088;6.572;2023-06-14T09:16:18;100987.94;;;22.24;31.49
48244;BME280;34053;51.088;6.572;2023-06-14T09:19:14;100987.03;;;22.37;31.37
48244;BME280;34053;51.088;6.572;2023-06-14T09:22:11;100985.13;;;22.39;32.19
48244;BME280;34053;51.088;6.572;2023-06-14T09:25:02;100985.25;;;22.37;31.74
48244;BME280;34053;51.088;6.572;2023-06-14T09:27:53;100986.09;;;22.38;31.91
48244;BME280;34053;51.088;6.572;2023-06-14T09:30:44;100983.22;;;22.41;31.83
48244;BME280;34053;51.088;6.572;2023-06-14T09:33:35;100989.91;;;22.59;32.88
48244;BME280;34053;51.088;6.572;2023-06-14T09:36:26;100993.81;;;22.67;32.09
48244;BME280;34053;51.088;6.572;2023-06-14T09:39:17;100993.41;;;22.60;32.78
48244;BME280;34053;51.088;6.572;2023-06-14T09:42:16;100995.53;;;22.68;32.12
48244;BME280;34053;51.088;6.572;2023-06-14T09:45:11;100999.59;;;22.60;32.03
48244;BME280;34053;51.088;6.572;2023-06-14T09:48:04;101006.94;;;22.70;32.39
48244;BME280;34053;51.088;6.572;2023-06-14T09:50:57;100999.91;;;22.69;32.70
48244;BME280;34053;51.088;6.572;2023-06-14T09:53:49;100995.06;;;22.74;32.96
48244;BME280;34053;51.088;6.572;2023-06-14T09:56:47;100999.22;;;22.78;32.83
48244;BME280;34053;51.088;6.572;2023-06-14T09:59:42;100995.22;;;22.84;33.57
48244;BME280;34053;51.088;6.572;2023-06-14T10:02:36;100983.97;;;22.91;33.27
48244;BME280;34053;51.088;6.572;2023-06-14T10:05:46;100985.22;;;22.99;32.12
48244;BME280;34053;51.088;6.572;2023-06-14T10:08:45;100994.34;;;23.07;32.44
48244;BME280;34053;51.088;6.572;2023-06-14T10:11:37;101012.38;;;23.05;33.84
48244;BME280;34053;51.088;6.572;2023-06-14T10:14:34;100992.16;;;23.01;34.55
48244;BME280;34053;51.088;6.572;2023-06-14T10:17:33;100994.94;;;23.00;34.99
48244;BME280;34053;51.088;6.572;2023-06-14T10:20:27;100992.53;;;23.08;34.66
48244;BME280;34053;51.088;6.572;2023-06-14T10:23:22;101004.72;;;23.12;34.70
48244;BME280;34053;51.088;6.572;2023-06-14T10:26:22;100997.03;;;23.07;34.31
48244;BME280;34053;51.088;6.572;2023-06-14T10:29:13;101003.13;;;23.09;34.08
48244;BME280;34053;51.088;6.572;2023-06-14T10:32:04;101002.38;;;23.07;34.49
48244;BME280;34053;51.088;6.572;2023-06-14T10:34:58;101007.59;;;23.22;34.33
48244;BME280;34053;51.088;6.572;2023-06-14T10:37:49;101008.00;;;23.16;33.59
48244;BME280;34053;51.088;6.572;2023-06-14T10:40:40;101001.94;;;23.14;33.99
48244;BME280;34053;51.088;6.572;2023-06-14T10:43:31;100999.88;;;23.17;33.81
48244;BME280;34053;51.088;6.572;2023-06-14T10:46:28;100997.84;;;23.21;33.66
48244;BME280;34053;51.088;6.572;2023-06-14T10:49:20;100990.97;;;23.17;32.79
48244;BME280;34053;51.088;6.572;2023-06-14T10:52:15;100991.41;;;23.23;33.03
48244;BME280;34053;51.088;6.572;2023-06-14T10:58:07;100992.38;;;23.22;33.05
48244;BME280;34053;51.088;6.572;2023-06-14T11:00:58;100995.19;;;23.32;32.70
48244;BME280;34053;51.088;6.572;2023-06-14T11:03:53;101001.16;;;23.36;32.21
48244;BME280;34053;51.088;6.572;2023-06-14T11:06:47;101006.06;;;23.42;32.95
48244;BME280;34053;51.088;6.572;2023-06-14T11:09:55;101005.81;;;23.45;32.95
48244;BME280;34053;51.088;6.572;2023-06-14T11:12:54;101000.69;;;23.53;32.74
48244;BME280;34053;51.088;6.572;2023-06-14T11:15:50;100999.13;;;23.51;32.63
48244;BME280;34053;51.088;6.572;2023-06-14T11:18:44;101000.34;;;23.58;33.13
48244;BME280;34053;51.088;6.572;2023-06-14T11:21:40;100991.38;;;23.70;33.08
48244;BME280;34053;51.088;6.572;2023-06-14T11:24:32;100992.22;;;23.71;32.58
48244;BME280;34053;51.088;6.572;2023-06-14T11:27:27;100991.00;;;23.86;33.26
48244;BME280;34053;51.088;6.572;2023-06-14T11:30:18;100989.09;;;24.00;33.15
48244;BME280;34053;51.088;6.572;2023-06-14T11:33:16;100986.50;;;23.98;33.39
48244;BME280;34053;51.088;6.572;2023-06-14T11:36:09;100987.63;;;23.96;32.96
48244;BME280;34053;51.088;6.572;2023-06-14T11:39:04;100978.84;;;24.05;33.27
48244;BME280;34053;51.088;6.572;2023-06-14T11:41:59;100973.22;;;24.19;33.26
48244;BME280;34053;51.088;6.572;2023-06-14T11:44:53;100981.63;;;24.15;32.85
48244;BME280;34053;51.088;6.572;2023-06-14T11:47:44;100982.69;;;24.35;33.13
48244;BME280;34053;51.088;6.572;2023-06-14T11:50:37;100974.28;;;24.40;33.90
48244;BME280;34053;51.088;6.572;2023-06-14T11:53:29;100973.34;;;24.62;33.60
48244;BME280;34053;51.088;6.572;2023-06-14T11:56:21;100972.38;;;24.63;33.96
48244;BME280;34053;51.088;6.572;2023-06-14T11:59:13;100973.94;;;24.65;33.50
48244;BME280;34053;51.088;6.572;2023-06-14T12:02:04;100975.56;;;24.68;32.81
48244;BME280;34053;51.088;6.572;2023-06-14T12:04:55;100985.63;;;24.87;33.42
48244;BME280;34053;51.088;6.572;2023-06-14T12:07:46;100970.38;;;24.88;33.48
48244;BME280;34053;51.088;6.572;2023-06-14T12:10:41;100968.13;;;24.93;32.90
48244;BME280;34053;51.088;6.572;2023-06-14T12:13:37;100963.94;;;25.00;33.84
48244;BME280;34053;51.088;6.572;2023-06-14T12:16:32;100965.34;;;25.37;32.79
48244;BME280;34053;51.088;6.572;2023-06-14T12:19:25;100966.78;;;25.20;32.93
48244;BME280;34053;51.088;6.572;2023-06-14T12:22:16;100971.34;;;25.40;32.90
48244;BME280;34053;51.088;6.572;2023-06-14T12:25:07;100968.88;;;25.37;32.84
48244;BME280;34053;51.088;6.572;2023-06-14T12:28:08;100959.69;;;25.61;32.79
48244;BME280;34053;51.088;6.572;2023-06-14T12:30:58;100963.94;;;25.64;31.78
48244;BME280;34053;51.088;6.572;2023-06-14T12:33:49;100968.69;;;25.81;31.48
48244;BME280;34053;51.088;6.572;2023-06-14T12:36:40;100964.66;;;25.66;32.48
48244;BME280;34053;51.088;6.572;2023-06-14T12:39:35;100963.50;;;25.99;32.50
48244;BME280;34053;51.088;6.572;2023-06-14T12:42:25;100962.53;;;26.00;32.57
48244;BME280;34053;51.088;6.572;2023-06-14T12:45:16;100956.56;;;26.28;32.52
48244;BME280;34053;51.088;6.572;2023-06-14T12:48:07;100955.13;;;26.23;32.15
48244;BME280;34053;51.088;6.572;2023-06-14T12:50:59;100965.31;;;26.20;31.20
48244;BME280;34053;51.088;6.572;2023-06-14T12:53:50;100959.53;;;26.34;31.81
48244;BME280;34053;51.088;6.572;2023-06-14T12:56:41;100955.03;;;26.45;31.62
48244;BME280;34053;51.088;6.572;2023-06-14T12:59:33;100961.28;;;26.55;31.82
48244;BME280;34053;51.088;6.572;2023-06-14T13:02:24;100953.34;;;26.73;31.49
48244;BME280;34053;51.088;6.572;2023-06-14T13:05:16;100957.59;;;26.56;30.86
48244;BME280;34053;51.088;6.572;2023-06-14T13:08:07;100951.47;;;26.74;30.83
48244;BME280;34053;51.088;6.572;2023-06-14T13:10:59;100957.59;;;26.66;30.29
48244;BME280;34053;51.088;6.572;2023-06-14T13:13:50;100948.28;;;26.80;30.19
48244;BME280;34053;51.088;6.572;2023-06-14T13:16:41;100945.28;;;26.93;29.95
48244;BME280;34053;51.088;6.572;2023-06-14T13:19:32;100947.41;;;26.79;30.97
48244;BME280;34053;51.088;6.572;2023-06-14T13:22:23;100951.22;;;26.86;30.23
48244;BME280;34053;51.088;6.572;2023-06-14T13:25:13;100940.47;;;26.77;29.54
48244;BME280;34053;51.088;6.572;2023-06-14T13:28:05;100942.13;;;27.17;30.59
48244;BME280;34053;51.088;6.572;2023-06-14T13:30:55;100947.50;;;27.17;29.91
48244;BME280;34053;51.088;6.572;2023-06-14T13:33:46;100937.84;;;27.24;29.16
48244;BME280;34053;51.088;6.572;2023-06-14T13:36:37;100940.72;;;27.13;29.43
48244;BME280;34053;51.088;6.572;2023-06-14T13:39:28;100943.50;;;27.31;29.41
48244;BME280;34053;51.088;6.572;2023-06-14T13:42:19;100946.31;;;27.49;29.36
48244;BME280;34053;51.088;6.572;2023-06-14T13:45:11;100933.28;;;27.54;29.80
48244;BME280;34053;51.088;6.572;2023-06-14T13:48:02;100945.75;;;27.55;29.45
48244;BME280;34053;51.088;6.572;2023-06-14T13:50:53;100946.16;;;27.41;28.99
48244;BME280;34053;51.088;6.572;2023-06-14T13:53:53;100939.31;;;27.18;29.02
48244;BME280;34053;51.088;6.572;2023-06-14T13:56:46;100925.88;;;27.56;29.31
48244;BME280;34053;51.088;6.572;2023-06-14T13:59:37;100929.94;;;27.70;29.75
48244;BME280;34053;51.088;6.572;2023-06-14T14:02:28;100941.41;;;27.72;28.53
48244;BME280;34053;51.088;6.572;2023-06-14T14:05:19;100940.50;;;27.54;29.09
48244;BME280;34053;51.088;6.572;2023-06-14T14:08:11;100928.31;;;27.87;29.94
48244;BME280;34053;51.088;6.572;2023-06-14T14:11:02;100933.50;;;27.61;28.93
48244;BME280;34053;51.088;6.572;2023-06-14T14:13:52;100933.38;;;27.90;29.86
48244;BME280;34053;51.088;6.572;2023-06-14T14:16:43;100931.09;;;27.95;29.45
48244;BME280;34053;51.088;6.572;2023-06-14T14:19:34;100931.19;;;28.04;28.99
48244;BME280;34053;51.088;6.572;2023-06-14T14:22:25;100925.50;;;27.79;28.97
48244;BME280;34053;51.088;6.572;2023-06-14T14:25:15;100922.84;;;27.97;29.01
48244;BME280;34053;51.088;6.572;2023-06-14T14:28:06;100925.44;;;27.89;29.09
48244;BME280;34053;51.088;6.572;2023-06-14T14:30:57;100923.91;;;28.14;28.97
48244;BME280;34053;51.088;6.572;2023-06-14T14:33:48;100938.94;;;28.17;29.18
48244;BME280;34053;51.088;6.572;2023-06-14T14:36:38;100929.28;;;28.14;28.95
48244;BME280;34053;51.088;6.572;2023-06-14T14:39:32;100923.59;;;28.17;28.44
48244;BME280;34053;51.088;6.572;2023-06-14T14:42:23;100932.66;;;28.44;29.25
48244;BME280;34053;51.088;6.572;2023-06-14T14:45:14;100936.56;;;28.68;29.35
48244;BME280;34053;51.088;6.572;2023-06-14T14:48:05;100926.34;;;28.71;28.46
48244;BME280;34053;51.088;6.572;2023-06-14T14:50:56;100932.72;;;28.52;28.03
48244;BME280;34053;51.088;6.572;2023-06-14T14:53:47;100931.16;;;28.68;28.46
48244;BME280;34053;51.088;6.572;2023-06-14T14:56:38;100928.47;;;29.04;27.77
48244;BME280;34053;51.088;6.572;2023-06-14T14:59:28;100923.31;;;28.93;27.69
48244;BME280;34053;51.088;6.572;2023-06-14T15:02:19;100923.13;;;29.73;27.73
48244;BME280;34053;51.088;6.572;2023-06-14T15:05:10;100926.19;;;29.78;26.23
48244;BME280;34053;51.088;6.572;2023-06-14T15:08:01;100931.78;;;29.85;26.73